Time;durP1;ratioP1;P1;durP2;ratioP2;P2;SDS_P1;SDS_P2;PMS_P1;PMS_P2;Temp;Humidity;BMP_temperature;BMP_pressure;BME280_temperature;BME280_humidity;BME280_pressure;Samples;Min_cycle;Max_cycle;Signal;HPM_P1;HPM_P2
2023/10/25 00:00:13;;;;;;;0.10;0.10;;;11.20;99.90;;;;;;5115141;28;20030;-71
2023/10/25 00:02:39;;;;;;;2.03;1.90;;;11.10;99.90;;;;;;5115069;28;20134;-71
2023/10/25 00:05:05;;;;;;;0.20;0.20;;;11.10;99.90;;;;;;5115150;28;20110;-71
2023/10/25 00:07:31;;;;;;;0.10;0.10;;;11.10;99.90;;;;;;5115395;28;20030;-71
2023/10/25 00:09:57;;;;;;;0.80;0.40;;;11.00;99.90;;;;;;5113721;28;20032;-71
2023/10/25 00:12:23;;;;;;;0.10;0.10;;;11.10;99.90;;;;;;5115213;28;20089;-72
2023/10/25 00:14:49;;;;;;;0.52;0.52;;;11.20;99.90;;;;;;5114581;28;20023;-71
2023/10/25 00:17:15;;;;;;;0.50;0.50;;;11.20;99.90;;;;;;5112448;28;20035;-71
2023/10/25 00:19:40;;;;;;;0.10;0.10;;;11.10;99.90;;;;;;5103221;28;20020;-72
2023/10/25 00:22:06;;;;;;;0.20;0.20;;;11.30;99.90;;;;;;5113658;28;20093;-71
2023/10/25 00:24:32;;;;;;;0.40;0.40;;;11.30;99.90;;;;;;5114964;28;20028;-71
2023/10/25 00:26:58;;;;;;;0.10;0.10;;;11.30;99.90;;;;;;5103363;28;20043;-71
2023/10/25 00:29:24;;;;;;;0.22;0.22;;;11.30;99.90;;;;;;5092565;28;20019;-71
2023/10/25 00:31:49;;;;;;;0.10;0.10;;;11.20;99.90;;;;;;5097725;28;20024;-71
2023/10/25 00:34:16;;;;;;;1.27;0.30;;;11.30;99.90;;;;;;5110134;28;20054;-71
2023/10/25 00:36:42;;;;;;;0.32;0.32;;;11.20;99.90;;;;;;5082160;28;20060;-71
2023/10/25 00:39:08;;;;;;;0.10;0.10;;;11.20;99.90;;;;;;5096310;28;20379;-72
2023/10/25 00:41:34;;;;;;;1.02;0.68;;;11.30;99.90;;;;;;5113452;28;20024;-71
2023/10/25 00:43:59;;;;;;;0.55;0.47;;;11.30;99.90;;;;;;5109790;28;20059;-71
2023/10/25 00:46:26;;;;;;;0.10;0.10;;;11.20;99.90;;;;;;5104899;28;20019;-72
2023/10/25 00:48:59;;;;;;;0.10;0.10;;;11.30;99.90;;;;;;5114481;28;20065;-71
2023/10/25 00:51:26;;;;;;;0.57;0.57;;;11.50;99.90;;;;;;5114219;28;20110;-71
2023/10/25 00:53:54;;;;;;;0.00;0.00;;;11.50;99.90;;;;;;5114244;28;20130;-72
2023/10/25 00:56:31;;;;;;;0.10;0.10;;;11.40;99.90;;;;;;5113222;28;20098;-71
2023/10/25 00:58:58;;;;;;;0.30;0.30;;;11.30;99.90;;;;;;5112558;28;20053;-72
2023/10/25 01:01:26;;;;;;;0.20;0.20;;;11.40;99.90;;;;;;5106613;28;20016;-71
2023/10/25 01:03:53;;;;;;;0.98;0.90;;;11.40;99.90;;;;;;5106190;28;20035;-71
2023/10/25 01:06:19;;;;;;;0.10;0.10;;;11.40;99.90;;;;;;5112836;28;20541;-71
2023/10/25 01:08:45;;;;;;;2.38;0.30;;;11.40;99.90;;;;;;5111974;28;20051;-71
2023/10/25 01:11:11;;;;;;;0.55;0.55;;;11.40;99.90;;;;;;5109432;28;20035;-71
2023/10/25 01:13:37;;;;;;;0.17;0.17;;;11.50;99.90;;;;;;5085020;28;20023;-71
2023/10/25 01:16:04;;;;;;;0.10;0.10;;;11.50;99.90;;;;;;5112391;28;20475;-72
2023/10/25 01:18:30;;;;;;;0.73;0.68;;;11.50;99.90;;;;;;5095748;28;20019;-71
2023/10/25 01:20:56;;;;;;;0.85;0.20;;;11.50;99.90;;;;;;5112516;28;20027;-72
2023/10/25 01:23:22;;;;;;;0.00;0.00;;;11.50;99.90;;;;;;5112423;28;20028;-71
2023/10/25 01:25:48;;;;;;;0.45;0.28;;;11.50;99.90;;;;;;5106342;28;20020;-71
2023/10/25 01:28:13;;;;;;;0.10;0.10;;;11.60;99.90;;;;;;5111936;28;20378;-72
2023/10/25 01:30:40;;;;;;;0.10;0.10;;;11.70;99.90;;;;;;5112413;28;20035;-71
2023/10/25 01:33:07;;;;;;;0.98;0.88;;;11.70;99.90;;;;;;5113617;28;20027;-71
2023/10/25 01:35:34;;;;;;;0.50;0.47;;;11.70;99.90;;;;;;5104997;28;20028;-71
2023/10/25 01:38:03;;;;;;;0.50;0.32;;;11.70;99.90;;;;;;5106803;28;20028;-71
2023/10/25 01:40:30;;;;;;;1.88;0.95;;;11.60;99.90;;;;;;5113055;28;20020;-71
2023/10/25 01:42:56;;;;;;;0.00;0.00;;;11.60;99.90;;;;;;5113479;28;20027;-70
2023/10/25 01:45:27;;;;;;;0.00;0.00;;;11.80;99.90;;;;;;5111982;28;20020;-71
2023/10/25 01:47:53;;;;;;;0.13;0.10;;;11.80;99.90;;;;;;5112297;28;20039;-70
2023/10/25 01:50:19;;;;;;;0.10;0.10;;;11.90;99.90;;;;;;5113282;28;20012;-71
2023/10/25 01:52:46;;;;;;;0.10;0.10;;;11.80;99.90;;;;;;5111931;28;20024;-71
2023/10/25 01:55:12;;;;;;;0.10;0.10;;;11.80;99.90;;;;;;5112942;28;20035;-71
2023/10/25 01:57:38;;;;;;;1.55;0.40;;;11.80;99.90;;;;;;5111967;28;20016;-71
2023/10/25 02:00:06;;;;;;;0.08;0.08;;;11.70;99.90;;;;;;5112073;28;20483;-71
2023/10/25 02:02:38;;;;;;;0.10;0.10;;;11.80;99.90;;;;;;5111666;28;20073;-71
2023/10/25 02:05:04;;;;;;;1.33;1.05;;;11.80;99.90;;;;;;5111980;28;20035;-70
2023/10/25 02:07:31;;;;;;;0.10;0.10;;;11.80;99.90;;;;;;5113020;28;20018;-71
2023/10/25 02:09:56;;;;;;;0.00;0.00;;;11.70;99.90;;;;;;5111629;28;20122;-71
2023/10/25 02:12:23;;;;;;;0.10;0.10;;;11.80;99.90;;;;;;5111593;28;20074;-71
2023/10/25 02:14:49;;;;;;;0.10;0.10;;;11.70;99.90;;;;;;5111861;28;20483;-71
2023/10/25 02:17:15;;;;;;;0.10;0.10;;;11.80;99.90;;;;;;5111588;28;20107;-71
2023/10/25 02:19:41;;;;;;;1.33;0.93;;;11.80;99.90;;;;;;5115576;28;20036;-71
2023/10/25 02:22:07;;;;;;;0.10;0.10;;;11.70;99.90;;;;;;5115947;28;20353;-70
2023/10/25 02:24:33;;;;;;;1.15;0.28;;;11.80;99.90;;;;;;5116973;28;20114;-72
2023/10/25 02:26:59;;;;;;;0.03;0.03;;;11.80;99.90;;;;;;5117202;28;20081;-71
2023/10/25 02:29:25;;;;;;;1.05;0.95;;;11.90;99.90;;;;;;5115746;28;20479;-71
2023/10/25 02:31:51;;;;;;;0.10;0.10;;;11.90;99.90;;;;;;5115831;28;20031;-71
2023/10/25 02:34:17;;;;;;;0.55;0.43;;;11.80;99.90;;;;;;5115742;28;20067;-72
2023/10/25 02:36:42;;;;;;;0.08;0.08;;;11.90;99.90;;;;;;5102459;28;20032;-73
2023/10/25 02:39:10;;;;;;;0.08;0.08;;;11.90;99.90;;;;;;5115294;28;20486;-71
2023/10/25 02:41:37;;;;;;;0.10;0.10;;;12.00;99.90;;;;;;5115484;28;20490;-71
2023/10/25 02:44:03;;;;;;;0.00;0.00;;;12.20;99.90;;;;;;5115604;28;20063;-71
2023/10/25 02:46:29;;;;;;;0.00;0.00;;;11.90;99.90;;;;;;5115719;28;20581;-70
2023/10/25 02:48:55;;;;;;;0.17;0.17;;;11.90;99.90;;;;;;5116661;28;20119;-71
2023/10/25 02:51:20;;;;;;;0.38;0.30;;;12.00;99.90;;;;;;5098294;28;20023;-71
2023/10/25 02:53:46;;;;;;;0.10;0.10;;;11.80;99.90;;;;;;5115090;28;20020;-71
2023/10/25 02:56:12;;;;;;;0.00;0.00;;;11.90;99.90;;;;;;5116637;28;20027;-71
2023/10/25 02:58:39;;;;;;;0.10;0.10;;;11.90;99.90;;;;;;5115311;28;20027;-71
2023/10/25 03:01:06;;;;;;;0.10;0.10;;;11.80;99.90;;;;;;5116512;28;20020;-71
2023/10/25 03:03:33;;;;;;;0.10;0.10;;;11.80;99.90;;;;;;5116381;28;20400;-71
2023/10/25 03:05:59;;;;;;;0.03;0.03;;;11.90;99.90;;;;;;5116501;28;20035;-74
2023/10/25 03:08:26;;;;;;;1.85;0.35;;;11.90;99.90;;;;;;5116127;28;20443;-72
2023/10/25 03:10:52;;;;;;;0.00;0.00;;;11.90;99.90;;;;;;5116474;28;20019;-71
2023/10/25 03:13:18;;;;;;;0.00;0.00;;;12.00;99.90;;;;;;5116086;28;20040;-71
2023/10/25 03:15:44;;;;;;;0.10;0.10;;;12.00;99.90;;;;;;5114891;28;20095;-72
2023/10/25 03:18:10;;;;;;;0.10;0.10;;;12.00;99.90;;;;;;5116242;28;20028;-72
2023/10/25 03:20:36;;;;;;;0.10;0.10;;;12.00;99.90;;;;;;5116400;28;20173;-72
2023/10/25 03:23:02;;;;;;;0.03;0.03;;;12.00;99.90;;;;;;5116091;28;20126;-71
2023/10/25 03:25:28;;;;;;;0.08;0.08;;;12.00;99.90;;;;;;5115106;28;20114;-71
2023/10/25 03:27:54;;;;;;;0.00;0.00;;;12.10;99.90;;;;;;5101995;28;20115;-71
2023/10/25 03:30:19;;;;;;;0.20;0.10;;;12.10;99.90;;;;;;5094575;28;20027;-72
2023/10/25 03:32:45;;;;;;;0.00;0.00;;;12.10;99.90;;;;;;5104151;28;20024;-71
2023/10/25 03:35:12;;;;;;;0.10;0.10;;;12.20;99.90;;;;;;5093418;28;20522;-72
2023/10/25 03:37:41;;;;;;;0.10;0.10;;;12.20;99.90;;;;;;5104416;28;20023;-71
2023/10/25 03:40:08;;;;;;;0.10;0.10;;;12.20;99.90;;;;;;5114442;28;20028;-72
2023/10/25 03:42:35;;;;;;;0.00;0.00;;;12.20;99.90;;;;;;5114685;28;20032;-72
2023/10/25 03:45:01;;;;;;;0.00;0.00;;;12.10;99.90;;;;;;5115552;28;20464;-71
2023/10/25 03:47:27;;;;;;;0.20;0.20;;;12.20;99.90;;;;;;5115610;28;20015;-71
2023/10/25 03:49:52;;;;;;;1.13;0.65;;;12.10;99.90;;;;;;5113973;28;20231;-72
2023/10/25 03:52:18;;;;;;;0.10;0.10;;;12.10;99.90;;;;;;5113967;28;20027;-72
2023/10/25 03:54:44;;;;;;;0.00;0.00;;;12.10;99.90;;;;;;5114244;28;20028;-71
2023/10/25 03:57:10;;;;;;;0.25;0.25;;;12.00;99.90;;;;;;5114044;28;20023;-71
2023/10/25 03:59:36;;;;;;;0.00;0.00;;;11.90;99.90;;;;;;5115499;28;20023;-71
2023/10/25 04:02:01;;;;;;;0.10;0.10;;;11.90;99.90;;;;;;5113846;28;20105;-71
2023/10/25 04:04:28;;;;;;;0.00;0.00;;;12.00;99.90;;;;;;5115086;28;20383;-71
2023/10/25 04:06:54;;;;;;;0.00;0.00;;;12.00;99.90;;;;;;5115010;28;20016;-71
2023/10/25 04:09:20;;;;;;;0.10;0.10;;;12.00;99.90;;;;;;5113763;28;20126;-72
2023/10/25 04:11:45;;;;;;;0.10;0.10;;;11.90;99.90;;;;;;5115581;28;20055;-71
2023/10/25 04:14:11;;;;;;;5.65;0.32;;;11.90;99.90;;;;;;5115099;28;20023;-71
2023/10/25 04:16:37;;;;;;;1.60;1.50;;;11.90;99.90;;;;;;5114837;28;20011;-71
2023/10/25 04:19:03;;;;;;;0.00;0.00;;;11.90;99.90;;;;;;5114796;28;20032;-71
2023/10/25 04:21:29;;;;;;;0.10;0.10;;;11.80;99.90;;;;;;5114884;28;20114;-71
2023/10/25 04:23:56;;;;;;;0.10;0.10;;;11.70;99.90;;;;;;5115017;28;20039;-71
2023/10/25 04:26:22;;;;;;;0.35;0.35;;;11.60;99.90;;;;;;5114861;28;20365;-71
2023/10/25 04:28:48;;;;;;;0.03;0.03;;;11.70;99.90;;;;;;5114753;28;20043;-72
2023/10/25 04:31:13;;;;;;;0.10;0.10;;;11.80;99.90;;;;;;5093093;28;20027;-71
2023/10/25 04:33:39;;;;;;;0.17;0.17;;;11.80;99.90;;;;;;5113273;28;20535;-72
2023/10/25 04:36:06;;;;;;;0.00;0.00;;;11.80;99.90;;;;;;5102619;28;20020;-71
2023/10/25 04:38:32;;;;;;;0.10;0.10;;;11.90;99.90;;;;;;5112584;28;20363;-71
2023/10/25 04:40:58;;;;;;;0.25;0.25;;;11.80;99.90;;;;;;5114712;28;20410;-71
2023/10/25 04:43:24;;;;;;;0.00;0.00;;;11.70;99.90;;;;;;5113444;28;20065;-71
2023/10/25 04:45:53;;;;;;;0.00;0.00;;;11.90;99.90;;;;;;5114415;28;20024;-72
2023/10/25 04:48:18;;;;;;;0.00;0.00;;;11.90;99.90;;;;;;5114305;28;20039;-72
2023/10/25 04:50:44;;;;;;;2.83;2.03;;;11.90;99.90;;;;;;5114153;28;20028;-71
2023/10/25 04:53:10;;;;;;;0.00;0.00;;;11.80;99.90;;;;;;5113190;28;20076;-72
2023/10/25 04:55:36;;;;;;;0.00;0.00;;;11.90;99.90;;;;;;5114133;28;20016;-72
2023/10/25 04:58:03;;;;;;;0.40;0.40;;;11.90;99.90;;;;;;5114443;28;20077;-71
2023/10/25 05:00:29;;;;;;;0.63;0.43;;;11.70;99.90;;;;;;5111689;28;20019;-71
2023/10/25 05:02:56;;;;;;;0.00;0.00;;;11.70;99.90;;;;;;5100871;28;20075;-71
2023/10/25 05:05:22;;;;;;;0.10;0.10;;;11.80;99.90;;;;;;5098722;28;20021;-73
2023/10/25 05:07:48;;;;;;;0.00;0.00;;;11.80;99.90;;;;;;5093712;28;20036;-74
2023/10/25 05:10:14;;;;;;;0.10;0.10;;;11.80;99.90;;;;;;5093524;28;20065;-72
2023/10/25 05:12:45;;;;;;;0.10;0.10;;;11.80;99.90;;;;;;5093512;28;20464;-72
2023/10/25 05:15:13;;;;;;;0.30;0.30;;;11.90;99.90;;;;;;5093588;28;20024;-71
2023/10/25 05:17:41;;;;;;;0.10;0.10;;;11.90;99.90;;;;;;5093412;28;20129;-71
2023/10/25 05:20:07;;;;;;;0.10;0.10;;;11.80;99.90;;;;;;5093177;28;20020;-76
2023/10/25 05:22:34;;;;;;;1.25;0.32;;;11.80;99.90;;;;;;5092931;28;20032;-75
2023/10/25 05:25:04;;;;;;;0.10;0.10;;;11.70;99.90;;;;;;5093197;28;20107;-73
2023/10/25 05:27:32;;;;;;;0.10;0.10;;;11.70;99.90;;;;;;5093388;28;20077;-71
2023/10/25 05:30:04;;;;;;;0.00;0.00;;;11.80;99.90;;;;;;5110174;27;20051;-71
2023/10/25 05:32:32;;;;;;;0.05;0.05;;;12.00;99.90;;;;;;5099256;27;20111;-71
2023/10/25 05:35:00;;;;;;;0.10;0.10;;;11.90;99.90;;;;;;5094800;27;20036;-71
2023/10/25 05:37:27;;;;;;;0.15;0.15;;;11.60;99.90;;;;;;5120224;27;20065;-71
2023/10/25 05:39:53;;;;;;;2.85;0.25;;;11.60;99.90;;;;;;5122856;27;20027;-71
2023/10/25 05:42:20;;;;;;;0.10;0.10;;;11.60;99.90;;;;;;5114485;27;20099;-71
2023/10/25 05:44:51;;;;;;;7.88;0.95;;;11.60;99.90;;;;;;5109637;27;20476;-71
2023/10/25 05:47:17;;;;;;;1.17;0.32;;;11.60;99.90;;;;;;5113946;27;20028;-72
2023/10/25 05:49:43;;;;;;;0.10;0.10;;;11.70;99.90;;;;;;5108461;27;20076;-71
2023/10/25 05:52:10;;;;;;;0.10;0.10;;;11.60;99.90;;;;;;5106401;27;20043;-71
2023/10/25 05:54:37;;;;;;;0.15;0.13;;;11.70;99.90;;;;;;5101931;28;20054;-71
2023/10/25 05:57:06;;;;;;;0.10;0.10;;;11.50;99.90;;;;;;5109459;27;20040;-71
2023/10/25 05:59:32;;;;;;;0.20;0.20;;;11.60;99.90;;;;;;5111563;27;20058;-71
2023/10/25 06:02:22;;;;;;;0.17;0.17;;;11.50;99.90;;;;;;5112416;27;20369;-71
2023/10/25 06:04:50;;;;;;;0.30;0.30;;;11.60;99.90;;;;;;5096746;27;20101;-72
2023/10/25 06:07:16;;;;;;;0.10;0.10;;;11.70;99.90;;;;;;5092217;28;20028;-71
2023/10/25 06:09:42;;;;;;;0.20;0.20;;;11.70;99.90;;;;;;5117641;27;20119;-71
2023/10/25 06:12:10;;;;;;;0.10;0.10;;;11.60;99.90;;;;;;5117572;27;20447;-71
2023/10/25 06:14:36;;;;;;;0.00;0.00;;;11.60;99.90;;;;;;5101069;28;20026;-72
2023/10/25 06:17:02;;;;;;;0.17;0.17;;;11.60;99.90;;;;;;5099625;28;20379;-73
2023/10/25 06:19:28;;;;;;;0.00;0.00;;;11.80;99.90;;;;;;5106972;28;20028;-71
2023/10/25 06:21:54;;;;;;;0.00;0.00;;;11.90;99.90;;;;;;5119302;28;20382;-72
2023/10/25 06:24:21;;;;;;;0.10;0.10;;;11.90;99.90;;;;;;5104041;28;20137;-72
2023/10/25 06:26:47;;;;;;;9.13;1.83;;;11.80;99.90;;;;;;5106739;28;20051;-72
2023/10/25 06:29:12;;;;;;;2.70;0.50;;;11.70;99.90;;;;;;5103332;28;20507;-72
2023/10/25 06:31:38;;;;;;;0.55;0.55;;;11.70;99.90;;;;;;5123714;28;20035;-72
2023/10/25 06:34:04;;;;;;;0.22;0.22;;;11.80;99.90;;;;;;5125407;27;20031;-72
2023/10/25 06:36:34;;;;;;;0.10;0.10;;;11.80;99.90;;;;;;5113490;27;20023;-72
2023/10/25 06:39:04;;;;;;;0.10;0.10;;;11.80;99.90;;;;;;5119285;28;20063;-72
2023/10/25 06:41:32;;;;;;;0.00;0.00;;;11.80;99.90;;;;;;5117156;28;20108;-72
2023/10/25 06:44:04;;;;;;;0.00;0.00;;;11.80;99.90;;;;;;5117623;28;20034;-72
2023/10/25 06:46:30;;;;;;;0.00;0.00;;;11.90;99.90;;;;;;5128140;27;20046;-72
2023/10/25 06:48:58;;;;;;;5.82;1.17;;;11.80;99.90;;;;;;5110978;28;20105;-73
2023/10/25 06:51:25;;;;;;;0.30;0.30;;;11.90;99.90;;;;;;5119260;28;20032;-71
2023/10/25 06:53:51;;;;;;;0.03;0.03;;;11.80;99.90;;;;;;5115395;27;20007;-72
2023/10/25 06:56:17;;;;;;;0.00;0.00;;;11.90;99.90;;;;;;5120882;28;20023;-72
2023/10/25 06:58:43;;;;;;;0.10;0.10;;;11.90;99.90;;;;;;5120603;28;20490;-73
2023/10/25 07:01:12;;;;;;;0.00;0.00;;;11.90;99.90;;;;;;5119445;28;20020;-72
2023/10/25 07:03:44;;;;;;;0.00;0.00;;;11.90;99.90;;;;;;5118870;27;20039;-73
2023/10/25 07:06:10;;;;;;;;;;;12.00;99.90;;;;;;5112208;28;20035;-72
2023/10/25 07:08:36;;;;;;;0.03;0.03;;;12.10;99.90;;;;;;5124278;27;19914;-72
2023/10/25 07:11:03;;;;;;;0.10;0.10;;;12.00;99.90;;;;;;5124906;27;20106;-72
2023/10/25 07:13:29;;;;;;;0.10;0.10;;;12.10;99.90;;;;;;5124249;27;20032;-72
2023/10/25 07:15:56;;;;;;;0.00;0.00;;;12.00;99.90;;;;;;5118551;27;20034;-71
2023/10/25 07:18:22;;;;;;;0.10;0.10;;;12.00;99.90;;;;;;5119388;27;20539;-72
2023/10/25 07:20:50;;;;;;;0.00;0.00;;;12.00;99.90;;;;;;5126827;27;20038;-72
2023/10/25 07:23:16;;;;;;;0.10;0.10;;;12.00;99.90;;;;;;5124091;27;20016;-72
2023/10/25 07:25:43;;;;;;;0.00;0.00;;;12.30;99.90;;;;;;5113291;27;20039;-72
2023/10/25 07:28:09;;;;;;;0.10;0.10;;;12.50;99.90;;;;;;5103275;27;20027;-72
2023/10/25 07:30:35;;;;;;;0.00;0.00;;;12.60;99.90;;;;;;5103318;28;20107;-71
2023/10/25 07:33:02;;;;;;;0.00;0.00;;;12.70;99.90;;;;;;5095176;28;20057;-71
2023/10/25 07:35:28;;;;;;;0.13;0.13;;;12.60;99.90;;;;;;5095362;28;20020;-72
2023/10/25 07:37:54;;;;;;;0.00;0.00;;;12.50;99.90;;;;;;5110686;28;20460;-71
2023/10/25 07:40:20;;;;;;;0.00;0.00;;;12.60;99.90;;;;;;5097074;28;20095;-71
2023/10/25 07:42:46;;;;;;;0.00;0.00;;;12.60;99.90;;;;;;5115476;28;20036;-70
2023/10/25 07:45:12;;;;;;;0.10;0.10;;;12.70;99.90;;;;;;5115239;28;20020;-72
2023/10/25 07:47:39;;;;;;;0.03;0.03;;;12.70;99.90;;;;;;5115508;28;20031;-71
2023/10/25 07:50:05;;;;;;;0.10;0.10;;;12.90;99.90;;;;;;5114169;28;20076;-71
2023/10/25 07:52:33;;;;;;;0.43;0.38;;;12.70;99.90;;;;;;5115541;28;20055;-71
2023/10/25 07:54:59;;;;;;;0.20;0.20;;;12.40;99.90;;;;;;5114385;28;20065;-70
2023/10/25 07:57:29;;;;;;;0.90;0.55;;;12.20;99.90;;;;;;5113944;28;20024;-71
2023/10/25 07:59:55;;;;;;;0.00;0.00;;;12.10;99.90;;;;;;5113987;28;20118;-71
2023/10/25 08:02:21;;;;;;;0.00;0.00;;;12.40;99.90;;;;;;5114441;28;20114;-71
2023/10/25 08:04:46;;;;;;;0.10;0.10;;;12.40;99.90;;;;;;5105095;28;20082;-72
2023/10/25 08:07:12;;;;;;;0.10;0.10;;;12.50;99.90;;;;;;5094737;28;20024;-71
2023/10/25 08:09:41;;;;;;;0.00;0.00;;;12.70;99.90;;;;;;5094778;28;20024;-71
2023/10/25 08:12:08;;;;;;;0.00;0.00;;;12.80;99.90;;;;;;5094550;28;20120;-71
2023/10/25 08:14:34;;;;;;;0.20;0.20;;;12.70;99.90;;;;;;5093186;28;20026;-71
2023/10/25 08:17:00;;;;;;;0.10;0.10;;;12.50;99.90;;;;;;5094527;28;20515;-71
2023/10/25 08:19:25;;;;;;;0.00;0.00;;;12.50;99.90;;;;;;5094341;28;20031;-71
2023/10/25 08:21:51;;;;;;;0.10;0.10;;;12.60;99.90;;;;;;5094580;28;20028;-72
2023/10/25 08:24:17;;;;;;;0.57;0.40;;;12.40;99.90;;;;;;5094244;28;20039;-71
2023/10/25 08:26:45;;;;;;;0.10;0.10;;;12.30;99.90;;;;;;5095954;28;20053;-71
2023/10/25 08:29:11;;;;;;;0.05;0.05;;;12.50;99.90;;;;;;5094350;28;20500;-71
2023/10/25 08:31:37;;;;;;;0.10;0.10;;;12.40;99.90;;;;;;5100665;28;20022;-71
2023/10/25 08:34:03;;;;;;;0.00;0.00;;;12.40;99.90;;;;;;5101305;28;20094;-71
2023/10/25 08:36:30;;;;;;;0.00;0.00;;;12.60;99.90;;;;;;5093899;28;20065;-71
2023/10/25 08:38:57;;;;;;;0.10;0.10;;;12.60;99.90;;;;;;5114744;28;20096;-71
2023/10/25 08:41:27;;;;;;;0.10;0.10;;;12.50;99.90;;;;;;5113312;28;20023;-71
2023/10/25 08:43:53;;;;;;;0.10;0.10;;;12.40;99.90;;;;;;5114408;28;20043;-71
2023/10/25 08:46:23;;;;;;;0.10;0.10;;;12.40;99.90;;;;;;5114775;28;20095;-71
2023/10/25 08:48:55;;;;;;;0.30;0.25;;;12.40;99.90;;;;;;5114408;28;20030;-71
2023/10/25 08:51:22;;;;;;;;;;;12.60;99.90;;;;;;5114729;28;20076;-71
2023/10/25 08:53:49;;;;;;;0.00;0.00;;;12.40;99.90;;;;;;5114345;28;20317;-71
2023/10/25 08:56:15;;;;;;;0.00;0.00;;;12.30;99.90;;;;;;5113989;28;20042;-71
2023/10/25 08:58:41;;;;;;;1.45;0.30;;;12.30;99.90;;;;;;5113066;28;20031;-71
2023/10/25 09:01:07;;;;;;;0.00;0.00;;;12.60;99.90;;;;;;5114235;28;20429;-71
2023/10/25 09:03:33;;;;;;;0.20;0.20;;;12.60;99.90;;;;;;5114005;28;20028;-71
2023/10/25 09:06:03;;;;;;;0.52;0.35;;;12.60;99.90;;;;;;5114106;28;20031;-71
2023/10/25 09:08:30;;;;;;;0.20;0.20;;;12.90;99.90;;;;;;5114055;28;20028;-72
2023/10/25 09:11:01;;;;;;;0.00;0.00;;;13.10;99.90;;;;;;5113666;28;20024;-71
2023/10/25 09:13:28;;;;;;;2.10;1.08;;;12.80;99.90;;;;;;5114008;28;20019;-70
2023/10/25 09:16:13;;;;;;;0.28;0.28;;;12.70;99.90;;;;;;5112445;28;20464;-71
2023/10/25 09:18:40;;;;;;;0.10;0.10;;;12.70;99.90;;;;;;5114105;28;20031;-71
2023/10/25 09:21:09;;;;;;;0.00;0.00;;;12.60;99.90;;;;;;5113515;28;20109;-71
2023/10/25 09:23:35;;;;;;;3.50;0.57;;;12.50;99.90;;;;;;5113559;28;20093;-70
2023/10/25 09:26:15;;;;;;;0.10;0.10;;;12.50;99.90;;;;;;5113304;28;20461;-71
2023/10/25 09:28:42;;;;;;;0.10;0.10;;;12.40;99.90;;;;;;5113389;28;20491;-70
2023/10/25 09:31:29;;;;;;;0.10;0.10;;;12.50;99.90;;;;;;5108820;28;20024;-71
2023/10/25 09:34:00;;;;;;;0.00;0.00;;;12.50;99.90;;;;;;5094673;28;20044;-71
2023/10/25 09:36:27;;;;;;;0.00;0.00;;;12.60;99.90;;;;;;5092765;28;20476;-71
2023/10/25 09:38:54;;;;;;;0.10;0.10;;;12.50;99.90;;;;;;5113195;28;20081;-71
2023/10/25 09:41:20;;;;;;;0.00;0.00;;;12.50;99.90;;;;;;5113488;28;20080;-71
2023/10/25 09:43:51;;;;;;;0.10;0.10;;;12.60;99.90;;;;;;5113407;28;20038;-71
2023/10/25 09:46:18;;;;;;;0.20;0.20;;;12.60;99.90;;;;;;5113500;28;20027;-71
2023/10/25 09:49:04;;;;;;;0.10;0.10;;;12.60;99.90;;;;;;5113394;28;20822;-70
2023/10/25 09:51:51;;;;;;;0.00;0.00;;;12.80;99.90;;;;;;5113403;28;20349;-71
2023/10/25 09:54:24;;;;;;;0.08;0.08;;;13.20;99.90;;;;;;5100229;28;20027;-70
2023/10/25 09:56:52;;;;;;;3.40;0.43;;;13.10;99.90;;;;;;5113136;28;20031;-71
2023/10/25 09:59:20;;;;;;;0.28;0.28;;;12.90;99.90;;;;;;5095017;28;20039;-71
2023/10/25 10:01:46;;;;;;;0.73;0.65;;;12.80;99.90;;;;;;5113228;28;20027;-71
2023/10/25 10:04:39;;;;;;;0.03;0.03;;;12.80;99.90;;;;;;5113247;28;20035;-71
2023/10/25 10:07:32;;;;;;;0.00;0.00;;;12.90;99.90;;;;;;5111511;28;20028;-71
2023/10/25 10:10:23;;;;;;;0.30;0.30;;;13.00;99.90;;;;;;5113090;28;20154;-71
2023/10/25 10:12:49;;;;;;;0.10;0.10;;;13.10;99.90;;;;;;5111642;28;20039;-71
2023/10/25 10:15:16;;;;;;;0.10;0.10;;;13.10;99.90;;;;;;5111884;28;20418;-71
2023/10/25 10:17:43;;;;;;;0.10;0.10;;;13.20;99.90;;;;;;5109943;28;20063;-71
2023/10/25 10:20:29;;;;;;;0.47;0.35;;;13.30;99.90;;;;;;5113167;28;20027;-71
2023/10/25 10:23:06;;;;;;;0.10;0.10;;;13.30;99.90;;;;;;5111160;28;20471;-70
2023/10/25 10:25:45;;;;;;;0.10;0.10;;;13.20;99.90;;;;;;5113121;28;20024;-71
2023/10/25 10:28:11;;;;;;;0.00;0.00;;;13.20;99.90;;;;;;5097724;28;20525;-71
2023/10/25 10:30:41;;;;;;;0.00;0.00;;;13.40;99.90;;;;;;5113119;28;20454;-71
2023/10/25 10:33:14;;;;;;;0.00;0.00;;;13.50;99.90;;;;;;5112535;28;20026;-71
2023/10/25 10:35:49;;;;;;;0.03;0.03;;;13.60;99.90;;;;;;5104867;28;20070;-71
2023/10/25 10:38:15;;;;;;;0.00;0.00;;;13.50;99.90;;;;;;5107519;28;20016;-72
2023/10/25 10:40:41;;;;;;;0.00;0.00;;;13.40;99.90;;;;;;5115114;28;20110;-71
2023/10/25 10:43:07;;;;;;;0.10;0.10;;;13.30;99.90;;;;;;5116794;28;20127;-71
2023/10/25 10:45:34;;;;;;;0.40;0.35;;;13.30;99.90;;;;;;5116789;28;20038;-71
2023/10/25 10:48:21;;;;;;;0.10;0.10;;;13.30;99.90;;;;;;5116635;28;20027;-71
2023/10/25 10:50:47;;;;;;;0.10;0.10;;;13.30;99.90;;;;;;5101718;28;20032;-71
2023/10/25 10:53:13;;;;;;;6.60;3.53;;;13.40;99.90;;;;;;5116437;28;20027;-71
2023/10/25 10:55:40;;;;;;;0.10;0.10;;;13.60;99.90;;;;;;5116699;28;20396;-71
2023/10/25 10:58:06;;;;;;;0.10;0.10;;;13.90;99.90;;;;;;5116547;28;20028;-71
2023/10/25 11:00:32;;;;;;;0.10;0.10;;;13.50;99.90;;;;;;5116581;28;20039;-70
2023/10/25 11:03:02;;;;;;;0.20;0.20;;;13.60;99.90;;;;;;5116094;28;20038;-72
2023/10/25 11:05:29;;;;;;;0.03;0.03;;;13.50;99.90;;;;;;5116344;28;20484;-71
2023/10/25 11:07:55;;;;;;;0.00;0.00;;;13.70;99.90;;;;;;5115940;28;20020;-73
2023/10/25 11:10:21;;;;;;;0.10;0.10;;;13.70;99.90;;;;;;5101698;28;20036;-73
2023/10/25 11:12:47;;;;;;;0.05;0.05;;;13.50;99.90;;;;;;5095614;28;20024;-72
2023/10/25 11:15:13;;;;;;;0.00;0.00;;;13.60;99.90;;;;;;5095818;28;20043;-72
2023/10/25 11:17:39;;;;;;;0.00;0.00;;;13.60;99.90;;;;;;5095479;28;20039;-72
2023/10/25 11:20:06;;;;;;;0.08;0.08;;;13.70;99.90;;;;;;5094520;28;20110;-73
2023/10/25 11:22:32;;;;;;;0.00;0.00;;;13.50;99.90;;;;;;5095079;28;20038;-73
2023/10/25 11:24:59;;;;;;;0.00;0.00;;;13.50;99.90;;;;;;5095882;28;20047;-73
2023/10/25 11:27:30;;;;;;;0.00;0.00;;;13.60;99.90;;;;;;5077200;28;20024;-72
2023/10/25 11:29:56;;;;;;;0.00;0.00;;;13.90;99.90;;;;;;5095540;28;20121;-72
2023/10/25 11:32:21;;;;;;;0.00;0.00;;;14.00;99.90;;;;;;5095097;28;20059;-72
2023/10/25 11:34:52;;;;;;;0.00;0.00;;;14.20;99.90;;;;;;5095194;28;20062;-72
2023/10/25 11:37:19;;;;;;;0.00;0.00;;;14.10;99.90;;;;;;5103420;28;20024;-74
2023/10/25 11:40:01;;;;;;;0.00;0.00;;;14.20;99.90;;;;;;5115672;28;20035;-75
2023/10/25 11:42:35;;;;;;;0.00;0.00;;;14.40;99.90;;;;;;5103457;28;20115;-74
2023/10/25 11:45:06;;;;;;;0.17;0.17;;;14.40;99.90;;;;;;5115332;28;20074;-75
2023/10/25 11:47:32;;;;;;;0.00;0.00;;;14.20;99.90;;;;;;5114509;28;20383;-75
2023/10/25 11:49:59;;;;;;;0.00;0.00;;;14.00;99.90;;;;;;5115185;28;20031;-76
2023/10/25 11:52:27;;;;;;;0.00;0.00;;;13.90;99.90;;;;;;5114982;28;20050;-74
2023/10/25 11:54:57;;;;;;;0.10;0.10;;;14.00;99.90;;;;;;5114117;28;20035;-73
2023/10/25 11:57:31;;;;;;;0.00;0.00;;;14.00;99.90;;;;;;5113980;28;20027;-74
2023/10/25 11:59:57;;;;;;;0.08;0.08;;;14.00;99.90;;;;;;5115328;28;20028;-76
2023/10/25 12:02:25;;;;;;;0.00;0.00;;;14.20;99.90;;;;;;5114923;28;20135;-73
2023/10/25 12:04:51;;;;;;;0.00;0.00;;;13.90;99.90;;;;;;5096582;28;20487;-72
2023/10/25 12:07:21;;;;;;;0.00;0.00;;;13.70;99.90;;;;;;5115086;28;20053;-72
2023/10/25 12:09:47;;;;;;;1.55;1.45;;;13.70;99.90;;;;;;5113836;28;20107;-72
2023/10/25 12:12:14;;;;;;;0.08;0.08;;;14.10;99.90;;;;;;5114810;28;20016;-72
2023/10/25 12:14:40;;;;;;;0.17;0.17;;;14.00;99.90;;;;;;5115201;28;20024;-72
2023/10/25 12:17:06;;;;;;;0.00;0.00;;;13.80;99.90;;;;;;5115124;28;20150;-72
2023/10/25 12:19:35;;;;;;;0.05;0.05;;;13.90;99.90;;;;;;5114367;28;20053;-72
2023/10/25 12:22:05;;;;;;;0.00;0.00;;;14.00;99.90;;;;;;5115035;28;20038;-71
2023/10/25 12:24:32;;;;;;;0.03;0.03;;;14.40;99.90;;;;;;5114728;28;20468;-75
2023/10/25 12:26:58;;;;;;;0.00;0.00;;;14.50;99.90;;;;;;5113499;28;20464;-73
2023/10/25 12:29:25;;;;;;;0.10;0.10;;;14.50;99.90;;;;;;5114590;28;20108;-72
2023/10/25 12:31:51;;;;;;;0.00;0.00;;;14.60;99.90;;;;;;5114805;28;20103;-72
2023/10/25 12:34:16;;;;;;;0.03;0.03;;;14.50;99.90;;;;;;5114165;28;20055;-73
2023/10/25 12:36:42;;;;;;;0.20;0.20;;;14.70;99.90;;;;;;5100440;28;20115;-73
2023/10/25 12:39:08;;;;;;;0.13;0.13;;;14.60;99.90;;;;;;5114580;28;20505;-72
2023/10/25 12:41:34;;;;;;;0.00;0.00;;;14.60;99.90;;;;;;5114329;28;20412;-72
2023/10/25 12:44:04;;;;;;;0.68;0.68;;;14.70;99.90;;;;;;5114621;28;20122;-73
2023/10/25 12:46:31;;;;;;;0.25;0.25;;;14.50;99.90;;;;;;5113321;28;20030;-72
2023/10/25 12:48:56;;;;;;;0.30;0.30;;;14.20;99.90;;;;;;5113986;28;20527;-72